createdAt,value
2022-12-11T00:00:05.000Z,25.95
2022-12-11T00:02:31.532Z,27.85
2022-12-11T00:04:57.953Z,26.27
2022-12-11T00:07:24.409Z,23.15
2022-12-11T00:09:50.821Z,26.15
2022-12-11T00:12:17.170Z,31.85
2022-12-11T00:14:43.704Z,26.95
2022-12-11T00:17:10.241Z,25.10
2022-12-11T00:19:36.612Z,18.92
2022-12-11T00:22:03.238Z,23.63
2022-12-11T00:24:29.639Z,28.58
2022-12-11T00:26:56.230Z,24.90
2022-12-11T00:29:22.601Z,25.27
2022-12-11T00:31:49.146Z,31.17
2022-12-11T00:34:15.643Z,27.35
2022-12-11T00:36:42.214Z,27.83
2022-12-11T00:39:08.659Z,19.45
2022-12-11T00:41:35.113Z,24.63
2022-12-11T00:44:01.823Z,22.35
2022-12-11T00:46:28.283Z,23.20
2022-12-11T00:48:54.689Z,27.15
2022-12-11T00:51:21.202Z,32.30
2022-12-11T00:53:47.795Z,36.70
2022-12-11T00:56:16.014Z,25.83
2022-12-11T00:58:42.648Z,33.17
2022-12-11T01:01:09.967Z,30.35
2022-12-11T01:03:37.249Z,29.85
2022-12-11T01:06:03.957Z,25.77
2022-12-11T01:08:35.352Z,16.23
2022-12-11T01:11:09.627Z,22.13
2022-12-11T01:13:36.755Z,28.35
2022-12-11T01:16:13.278Z,31.02
2022-12-11T01:18:40.228Z,26.57
2022-12-11T01:21:10.345Z,25.60
2022-12-11T01:23:37.164Z,17.40
2022-12-11T01:26:08.153Z,19.25
2022-12-11T01:28:34.647Z,32.05
2022-12-11T01:31:01.103Z,29.50
2022-12-11T01:33:27.792Z,23.17
2022-12-11T01:35:54.622Z,30.73
2022-12-11T01:38:21.037Z,25.88
2022-12-11T01:40:53.194Z,26.45
2022-12-11T01:43:19.687Z,19.27
2022-12-11T01:45:47.485Z,27.65
2022-12-11T01:48:21.377Z,30.80
2022-12-11T01:50:49.976Z,26.30
2022-12-11T01:53:19.012Z,28.30
2022-12-11T01:55:46.164Z,25.63
2022-12-11T01:58:12.849Z,27.65
2022-12-11T02:00:39.220Z,20.58
2022-12-11T02:03:05.674Z,24.52
2022-12-11T02:05:32.145Z,23.60
2022-12-11T02:07:59.582Z,27.50
2022-12-11T02:10:30.960Z,26.75
2022-12-11T02:12:59.480Z,25.45
2022-12-11T02:15:37.263Z,26.48
2022-12-11T02:18:11.906Z,26.13
2022-12-11T02:20:42.054Z,23.77
2022-12-11T02:23:11.319Z,18.05
2022-12-11T02:25:37.717Z,21.67
2022-12-11T02:28:22.767Z,29.15
2022-12-11T02:30:55.357Z,26.85
2022-12-11T02:33:23.870Z,26.37
2022-12-11T02:35:50.625Z,17.05
2022-12-11T02:38:20.129Z,23.90
2022-12-11T02:40:48.968Z,19.27
2022-12-11T02:43:16.287Z,26.65
2022-12-11T02:45:44.113Z,16.30
2022-12-11T02:48:11.610Z,21.55
2022-12-11T02:50:39.351Z,29.02
2022-12-11T02:53:07.016Z,19.38
2022-12-11T02:55:36.660Z,29.05
2022-12-11T02:58:08.226Z,27.50
2022-12-11T03:00:34.754Z,22.80
2022-12-11T03:03:01.634Z,22.10
2022-12-11T03:05:28.789Z,16.15
2022-12-11T03:07:55.422Z,22.25
2022-12-11T03:10:22.013Z,20.07
2022-12-11T03:12:53.882Z,22.38
2022-12-11T03:15:21.787Z,21.38
2022-12-11T03:18:09.992Z,23.48
2022-12-11T03:20:39.380Z,17.23
2022-12-11T03:23:14.914Z,18.33
2022-12-11T03:25:54.688Z,20.95
2022-12-11T03:28:25.765Z,27.13
2022-12-11T03:30:53.558Z,15.52
2022-12-11T03:33:23.607Z,26.15
2022-12-11T03:35:53.461Z,15.40
2022-12-11T03:38:21.974Z,24.58
2022-12-11T03:40:50.238Z,22.27
2022-12-11T03:43:17.227Z,27.05
2022-12-11T03:45:44.888Z,19.52
2022-12-11T03:48:12.157Z,25.23
2022-12-11T03:50:39.562Z,18.13
2022-12-11T03:53:06.400Z,19.70
2022-12-11T03:55:34.033Z,20.55
2022-12-11T03:58:00.490Z,26.88
2022-12-11T04:00:26.913Z,24.17
2022-12-11T04:03:28.494Z,22.05
2022-12-11T04:05:55.416Z,22.08
2022-12-11T04:08:22.471Z,15.05
2022-12-11T04:10:49.181Z,23.75
2022-12-11T04:13:15.585Z,25.17
2022-12-11T04:15:42.053Z,32.40
2022-12-11T04:18:28.104Z,28.30
2022-12-11T04:21:13.892Z,24.05
2022-12-11T04:23:58.959Z,29.65
2022-12-11T04:26:25.699Z,20.70
2022-12-11T04:28:52.153Z,22.45
2022-12-11T04:31:20.307Z,21.73
2022-12-11T04:33:46.993Z,27.25
2022-12-11T04:36:13.730Z,15.27
2022-12-11T04:38:40.592Z,19.30
2022-12-11T04:41:08.148Z,18.80
2022-12-11T04:43:34.890Z,22.42
2022-12-11T04:46:02.464Z,25.73
2022-12-11T04:48:28.979Z,19.02
2022-12-11T04:50:55.438Z,25.50
2022-12-11T04:53:22.177Z,23.23
2022-12-11T04:55:48.591Z,31.83
2022-12-11T04:58:14.981Z,26.00
2022-12-11T05:00:41.962Z,19.00
2022-12-11T05:03:08.810Z,23.33
2022-12-11T05:05:35.253Z,27.90
2022-12-11T05:08:01.674Z,30.63
2022-12-11T05:10:28.178Z,27.90
2022-12-11T05:12:54.553Z,23.95
2022-12-11T05:15:20.919Z,23.30
2022-12-11T05:17:47.319Z,29.13
2022-12-11T05:20:13.769Z,23.23
2022-12-11T05:22:40.146Z,28.65
2022-12-11T05:25:06.818Z,18.50
2022-12-11T05:27:33.515Z,28.70
2022-12-11T05:29:59.921Z,27.50
2022-12-11T05:32:26.585Z,26.08
2022-12-11T05:34:52.932Z,33.58
2022-12-11T05:37:19.357Z,32.45
2022-12-11T05:39:45.745Z,31.80
2022-12-11T05:42:12.099Z,32.03
2022-12-11T05:44:38.487Z,25.90
2022-12-11T05:47:04.856Z,28.08
2022-12-11T05:49:31.351Z,34.03
2022-12-11T05:51:57.948Z,36.93
2022-12-11T05:54:24.463Z,35.58
2022-12-11T05:56:51.465Z,28.58
2022-12-11T05:59:19.665Z,26.08
2022-12-11T06:01:46.257Z,42.67
2022-12-11T06:04:13.323Z,28.20
2022-12-11T06:06:40.494Z,33.95
2022-12-11T06:09:07.509Z,27.60
2022-12-11T06:11:34.369Z,37.75
2022-12-11T06:14:01.552Z,23.02
2022-12-11T06:16:28.019Z,28.67
2022-12-11T06:18:57.979Z,29.10
2022-12-11T06:21:29.475Z,36.20
2022-12-11T06:23:57.252Z,32.20
2022-12-11T06:26:24.097Z,27.98
2022-12-11T06:28:50.699Z,32.00
2022-12-11T06:31:17.634Z,42.22
2022-12-11T06:33:44.161Z,29.92
2022-12-11T06:36:11.892Z,20.55
2022-12-11T06:38:38.527Z,28.17
2022-12-11T06:41:05.501Z,37.63
2022-12-11T06:43:32.343Z,23.00
2022-12-11T06:46:03.875Z,27.70
2022-12-11T06:48:30.822Z,30.20
2022-12-11T06:50:57.931Z,29.00
2022-12-11T06:53:24.390Z,30.27
2022-12-11T06:55:50.851Z,19.52
2022-12-11T06:58:17.233Z,25.90
2022-12-11T07:00:43.807Z,36.15
2022-12-11T07:03:10.389Z,28.92
2022-12-11T07:05:36.767Z,32.47
2022-12-11T07:08:03.163Z,33.30
2022-12-11T07:10:29.722Z,32.78
2022-12-11T07:12:56.093Z,30.65
2022-12-11T07:15:22.518Z,25.67
2022-12-11T07:17:48.934Z,35.33
2022-12-11T07:20:15.334Z,32.70
2022-12-11T07:22:46.194Z,37.85
2022-12-11T07:25:13.485Z,32.85
2022-12-11T07:27:40.006Z,35.15
2022-12-11T07:30:06.684Z,32.80
2022-12-11T07:32:33.166Z,19.88
2022-12-11T07:34:59.692Z,30.30
2022-12-11T07:37:26.104Z,30.35
2022-12-11T07:39:52.454Z,26.20
2022-12-11T07:42:18.888Z,35.80
2022-12-11T07:44:45.265Z,36.08
2022-12-11T07:47:11.736Z,38.08
2022-12-11T07:49:38.379Z,30.13
2022-12-11T07:52:04.799Z,37.78
2022-12-11T07:54:31.172Z,28.07
2022-12-11T07:56:57.553Z,34.70
2022-12-11T07:59:24.111Z,26.02
2022-12-11T08:01:50.526Z,28.27
2022-12-11T08:04:16.962Z,35.53
2022-12-11T08:06:43.422Z,40.93
2022-12-11T08:09:14.689Z,32.53
2022-12-11T08:11:45.416Z,36.97
2022-12-11T08:14:11.794Z,47.92
2022-12-11T08:16:40.244Z,38.72
2022-12-11T08:19:06.745Z,37.60
2022-12-11T08:21:33.136Z,39.20
2022-12-11T08:23:59.529Z,36.28
2022-12-11T08:26:27.027Z,34.05
2022-12-11T08:28:53.675Z,42.08
2022-12-11T08:31:20.854Z,32.60
2022-12-11T08:33:48.217Z,30.50
2022-12-11T08:36:15.940Z,22.73
2022-12-11T08:38:42.689Z,32.10
2022-12-11T08:41:09.342Z,39.85
2022-12-11T08:43:35.755Z,35.60
2022-12-11T08:46:02.357Z,35.95
2022-12-11T08:48:28.948Z,39.05
2022-12-11T08:50:55.480Z,30.20
2022-12-11T08:53:21.926Z,32.85
2022-12-11T08:55:48.297Z,33.63
2022-12-11T08:58:14.702Z,31.85
2022-12-11T09:00:41.461Z,29.23
2022-12-11T09:03:12.779Z,34.13
2022-12-11T09:05:40.127Z,32.72
2022-12-11T09:08:07.252Z,35.93
2022-12-11T09:10:33.858Z,30.40
2022-12-11T09:13:00.261Z,23.73
2022-12-11T09:15:26.639Z,40.35
2022-12-11T09:17:53.048Z,28.80
2022-12-11T09:20:19.764Z,34.60
2022-12-11T09:22:46.245Z,38.60
2022-12-11T09:25:12.907Z,35.95
2022-12-11T09:27:39.631Z,35.70
2022-12-11T09:30:06.398Z,26.50
2022-12-11T09:32:32.786Z,34.20
2022-12-11T09:34:59.150Z,27.67
2022-12-11T09:37:25.550Z,30.17
2022-12-11T09:39:51.937Z,26.42
2022-12-11T09:42:21.137Z,38.40
2022-12-11T09:44:55.447Z,37.37
2022-12-11T09:47:31.739Z,41.88
2022-12-11T09:50:10.553Z,43.08
2022-12-11T09:52:55.911Z,37.55
2022-12-11T09:55:24.392Z,41.67
2022-12-11T09:57:50.758Z,36.13
2022-12-11T10:00:28.824Z,28.60
2022-12-11T10:03:01.029Z,41.90
2022-12-11T10:05:27.370Z,34.33
2022-12-11T10:08:02.913Z,34.50
2022-12-11T10:10:35.419Z,34.40
2022-12-11T10:13:10.759Z,23.13
2022-12-11T10:15:41.000Z,33.35
2022-12-11T10:18:11.682Z,38.60
2022-12-11T10:20:40.369Z,37.30
2022-12-11T10:23:08.022Z,27.23
2022-12-11T10:25:36.137Z,33.22
2022-12-11T10:28:10.536Z,40.35
2022-12-11T10:30:37.996Z,22.80
2022-12-11T10:33:04.377Z,36.03
2022-12-11T10:35:33.850Z,38.47
2022-12-11T10:38:12.568Z,28.23
2022-12-11T10:40:42.896Z,29.80
2022-12-11T10:43:09.282Z,34.65
2022-12-11T10:45:36.127Z,34.20
2022-12-11T10:48:04.223Z,25.93
2022-12-11T10:50:30.606Z,25.85
2022-12-11T10:52:57.441Z,30.73
2022-12-11T10:55:49.961Z,25.25
2022-12-11T10:58:18.948Z,28.50
2022-12-11T11:00:45.341Z,29.47
2022-12-11T11:03:38.140Z,32.88
2022-12-11T11:06:15.334Z,36.45
2022-12-11T11:08:44.427Z,50.63
2022-12-11T11:11:21.238Z,50.83
2022-12-11T11:13:47.729Z,44.07
2022-12-11T11:16:16.456Z,45.55
2022-12-11T11:18:49.069Z,38.15
2022-12-11T11:21:19.041Z,47.78
2022-12-11T11:23:50.517Z,30.55
2022-12-11T11:26:20.331Z,42.33
2022-12-11T11:28:49.998Z,32.03
2022-12-11T11:31:17.622Z,42.65
2022-12-11T11:33:58.182Z,29.08
2022-12-11T11:36:25.907Z,32.75
2022-12-11T11:39:12.522Z,36.13
2022-12-11T11:41:44.106Z,37.47
2022-12-11T11:44:13.323Z,42.55
2022-12-11T11:46:46.228Z,31.65
2022-12-11T11:49:12.594Z,36.67
2022-12-11T11:51:41.572Z,27.23
2022-12-11T11:54:23.054Z,29.50
2022-12-11T11:56:51.745Z,28.77
2022-12-11T11:59:31.150Z,30.65
2022-12-11T12:01:58.089Z,35.72
2022-12-11T12:04:25.568Z,37.93
2022-12-11T12:07:10.718Z,37.10
2022-12-11T12:09:53.010Z,32.80
2022-12-11T12:12:34.830Z,39.95
2022-12-11T12:15:20.219Z,36.67
2022-12-11T12:17:56.183Z,27.93
2022-12-11T12:20:28.525Z,33.45
2022-12-11T12:23:13.720Z,37.88
2022-12-11T12:25:40.076Z,37.67
2022-12-11T12:28:20.854Z,34.63
2022-12-11T12:30:53.010Z,32.17
2022-12-11T12:33:25.333Z,26.85
2022-12-11T12:36:05.083Z,34.20
2022-12-11T12:38:53.981Z,26.33
2022-12-11T12:41:20.359Z,25.58
2022-12-11T12:43:50.940Z,37.30
2022-12-11T12:46:38.059Z,35.00
2022-12-11T12:49:05.471Z,26.88
2022-12-11T12:51:32.057Z,28.90
2022-12-11T12:54:00.510Z,25.58
2022-12-11T12:56:29.210Z,36.47
2022-12-11T12:58:55.677Z,41.60
2022-12-11T13:01:24.376Z,36.08
2022-12-11T13:03:54.293Z,40.90
2022-12-11T13:06:31.904Z,43.60
2022-12-11T13:08:58.625Z,29.10
2022-12-11T13:11:32.316Z,23.90
2022-12-11T13:14:03.786Z,22.08
2022-12-11T13:16:39.310Z,23.08
2022-12-11T13:19:18.188Z,28.00
2022-12-11T13:21:54.604Z,31.17
2022-12-11T13:24:20.982Z,35.13
2022-12-11T13:26:50.709Z,30.17
2022-12-11T13:29:32.474Z,28.67
2022-12-11T13:32:00.412Z,31.30
2022-12-11T13:34:28.389Z,33.97
2022-12-11T13:36:54.940Z,36.95
2022-12-11T13:39:25.601Z,40.97
2022-12-11T13:41:53.726Z,39.15
2022-12-11T13:44:27.359Z,46.45
2022-12-11T13:46:55.291Z,39.67
2022-12-11T13:49:26.465Z,27.15
2022-12-11T13:51:54.285Z,29.83
2022-12-11T13:54:20.789Z,30.90
2022-12-11T13:56:53.953Z,28.67
2022-12-11T13:59:24.115Z,29.10
2022-12-11T14:01:50.783Z,20.75
2022-12-11T14:04:19.214Z,28.27
2022-12-11T14:06:45.623Z,33.72
2022-12-11T14:09:15.770Z,29.02
2022-12-11T14:11:42.628Z,29.55
2022-12-11T14:14:17.866Z,27.50
2022-12-11T14:16:46.658Z,22.25
2022-12-11T14:19:15.227Z,33.30
2022-12-11T14:21:41.603Z,24.42
2022-12-11T14:24:12.438Z,27.90
2022-12-11T14:26:38.840Z,26.75
2022-12-11T14:29:06.192Z,19.85
2022-12-11T14:31:40.991Z,25.83
2022-12-11T14:34:12.614Z,26.92
2022-12-11T14:36:39.440Z,29.90
2022-12-11T14:39:10.682Z,29.95
2022-12-11T14:41:42.920Z,22.25
2022-12-11T14:44:14.608Z,30.13
2022-12-11T14:46:48.900Z,36.20
2022-12-11T14:49:18.062Z,37.33
2022-12-11T14:51:44.638Z,30.67
2022-12-11T14:54:20.252Z,34.78
2022-12-11T14:56:47.324Z,31.83
2022-12-11T14:59:19.874Z,32.70
2022-12-11T15:01:56.891Z,36.97
2022-12-11T15:04:26.880Z,28.83
2022-12-11T15:06:53.267Z,32.58
2022-12-11T15:09:28.966Z,26.73
2022-12-11T15:11:57.040Z,35.97
2022-12-11T15:14:24.336Z,30.23
2022-12-11T15:16:51.940Z,26.80
2022-12-11T15:19:23.033Z,34.00
2022-12-11T15:21:49.620Z,39.50
2022-12-11T15:24:28.059Z,39.78
2022-12-11T15:26:57.385Z,35.67
2022-12-11T15:29:36.827Z,22.33
2022-12-11T15:32:09.217Z,39.70
2022-12-11T15:34:43.422Z,34.63
2022-12-11T15:37:19.126Z,36.92
2022-12-11T15:39:45.537Z,38.73
2022-12-11T15:42:14.928Z,37.40
2022-12-11T15:44:41.877Z,33.13
2022-12-11T15:47:12.275Z,38.80
2022-12-11T15:49:38.669Z,29.92
2022-12-11T15:52:05.082Z,36.38
2022-12-11T15:54:31.508Z,36.15
2022-12-11T15:56:59.386Z,30.23
2022-12-11T15:59:25.780Z,30.40
2022-12-11T16:01:52.300Z,38.83
2022-12-11T16:04:18.745Z,34.53
2022-12-11T16:06:46.428Z,34.33
2022-12-11T16:09:12.805Z,31.60
2022-12-11T16:11:39.236Z,28.10
2022-12-11T16:14:05.686Z,34.72
2022-12-11T16:16:32.115Z,46.93
2022-12-11T16:18:58.473Z,35.28
2022-12-11T16:21:24.944Z,39.05
2022-12-11T16:23:51.317Z,30.52
2022-12-11T16:26:17.721Z,30.52
2022-12-11T16:28:44.142Z,39.80
2022-12-11T16:31:13.333Z,36.40
2022-12-11T16:33:39.894Z,36.80
2022-12-11T16:36:16.860Z,38.92
2022-12-11T16:38:52.923Z,37.22
2022-12-11T16:41:20.080Z,38.47
2022-12-11T16:43:46.489Z,28.23
2022-12-11T16:46:12.938Z,33.95
2022-12-11T16:48:39.446Z,33.35
2022-12-11T16:51:06.041Z,29.17
2022-12-11T16:53:32.443Z,33.85
2022-12-11T16:55:58.879Z,33.42
2022-12-11T16:58:25.252Z,36.80
2022-12-11T17:00:51.625Z,39.63
2022-12-11T17:03:19.181Z,34.88
2022-12-11T17:05:45.569Z,39.40
2022-12-11T17:08:12.033Z,36.67
2022-12-11T17:10:39.618Z,33.75
2022-12-11T17:13:06.022Z,34.85
2022-12-11T17:15:32.510Z,33.25
2022-12-11T17:17:58.959Z,37.60
2022-12-11T17:20:25.594Z,33.75
2022-12-11T17:22:52.002Z,35.95
2022-12-11T17:25:22.302Z,38.75
2022-12-11T17:27:49.108Z,33.70
2022-12-11T17:30:15.588Z,34.53
2022-12-11T17:32:42.233Z,33.13
2022-12-11T17:35:08.930Z,37.58
2022-12-11T17:37:35.551Z,35.58
2022-12-11T17:40:01.954Z,35.08
2022-12-11T17:42:28.624Z,39.58
2022-12-11T17:44:54.963Z,44.10
2022-12-11T17:47:21.347Z,45.47
2022-12-11T17:49:47.745Z,33.15
2022-12-11T17:52:14.185Z,38.72
2022-12-11T17:54:40.550Z,38.28
2022-12-11T17:57:06.972Z,38.30
2022-12-11T17:59:33.458Z,37.90
2022-12-11T18:01:59.886Z,46.70
2022-12-11T18:04:26.359Z,39.67
2022-12-11T18:06:52.745Z,39.03
2022-12-11T18:09:19.117Z,46.38
2022-12-11T18:11:45.529Z,41.83
2022-12-11T18:14:16.904Z,40.72
2022-12-11T18:16:43.896Z,40.67
2022-12-11T18:19:10.346Z,34.90
2022-12-11T18:21:40.685Z,35.03
2022-12-11T18:24:07.441Z,35.78
2022-12-11T18:26:33.809Z,30.25
2022-12-11T18:29:00.363Z,30.83
2022-12-11T18:31:26.762Z,27.53
2022-12-11T18:33:53.718Z,30.30
2022-12-11T18:36:20.700Z,26.42
2022-12-11T18:38:48.095Z,29.42
2022-12-11T18:41:15.047Z,27.73
2022-12-11T18:43:41.872Z,29.47
2022-12-11T18:46:09.205Z,28.02
2022-12-11T18:48:35.722Z,30.50
2022-12-11T18:51:05.303Z,34.13
2022-12-11T18:53:31.696Z,28.58
2022-12-11T18:56:00.528Z,31.50
2022-12-11T18:58:29.084Z,29.45
2022-12-11T19:00:55.545Z,29.50
2022-12-11T19:03:21.997Z,34.50
2022-12-11T19:05:48.403Z,23.15
2022-12-11T19:08:16.351Z,24.53
2022-12-11T19:10:46.758Z,28.02
2022-12-11T19:13:13.815Z,30.48
2022-12-11T19:15:43.825Z,21.73
2022-12-11T19:18:10.606Z,21.63
2022-12-11T19:21:04.654Z,25.42
2022-12-11T19:23:25.333Z,20.67
2022-12-11T19:25:51.969Z,23.98
2022-12-11T19:28:18.536Z,20.88
2022-12-11T19:30:48.912Z,16.67
2022-12-11T19:33:16.079Z,16.70
2022-12-11T19:35:42.657Z,23.60
2022-12-11T19:38:09.500Z,21.00
2022-12-11T19:40:39.913Z,18.08
2022-12-11T19:43:06.378Z,20.38
2022-12-11T19:45:32.763Z,21.50
2022-12-11T19:47:59.143Z,17.67
2022-12-11T19:50:25.583Z,11.48
2022-12-11T19:52:51.976Z,19.45
2022-12-11T19:55:19.750Z,14.65
2022-12-11T19:57:46.133Z,20.85
2022-12-11T20:00:12.746Z,22.30
2022-12-11T20:02:39.644Z,26.83
2022-12-11T20:05:06.184Z,28.80
2022-12-11T20:07:32.662Z,27.15
2022-12-11T20:10:00.402Z,24.50
2022-12-11T20:12:27.058Z,23.70
2022-12-11T20:14:53.551Z,20.88
2022-12-11T20:17:20.007Z,29.23
2022-12-11T20:19:46.431Z,19.42
2022-12-11T20:22:14.848Z,27.45
2022-12-11T20:24:41.338Z,19.07
2022-12-11T20:27:08.868Z,19.05
2022-12-11T20:29:35.360Z,23.98
2022-12-11T20:32:01.761Z,20.00
2022-12-11T20:34:28.200Z,15.82
2022-12-11T20:36:55.661Z,20.03
2022-12-11T20:39:22.225Z,21.42
2022-12-11T20:41:48.584Z,18.75
2022-12-11T20:44:16.130Z,16.67
2022-12-11T20:46:42.543Z,19.65
2022-12-11T20:49:12.930Z,16.23
2022-12-11T20:51:39.636Z,16.88
2022-12-11T20:54:06.066Z,17.70
2022-12-11T20:56:32.601Z,16.80
2022-12-11T20:58:59.355Z,21.05
2022-12-11T21:01:26.750Z,11.40
2022-12-11T21:03:53.615Z,16.15
2022-12-11T21:06:25.845Z,13.55
2022-12-11T21:08:53.105Z,13.93
2022-12-11T21:11:19.551Z,17.95
2022-12-11T21:13:45.966Z,18.90
2022-12-11T21:16:12.527Z,16.30
2022-12-11T21:18:39.851Z,17.70
2022-12-11T21:21:06.644Z,20.38
2022-12-11T21:23:33.351Z,25.88
2022-12-11T21:26:00.661Z,20.53
2022-12-11T21:28:30.595Z,18.25
2022-12-11T21:31:05.158Z,20.30
2022-12-11T21:33:31.638Z,18.33
2022-12-11T21:35:58.910Z,25.02
2022-12-11T21:38:25.548Z,19.80
2022-12-11T21:40:52.390Z,24.90
2022-12-11T21:43:19.036Z,23.65
2022-12-11T21:46:01.162Z,22.08
2022-12-11T21:48:28.578Z,18.80
2022-12-11T21:50:54.953Z,14.90
2022-12-11T21:53:21.361Z,16.45
2022-12-11T21:55:47.857Z,18.45
2022-12-11T21:58:14.292Z,17.30
2022-12-11T22:00:40.807Z,11.17
2022-12-11T22:03:07.401Z,17.05
2022-12-11T22:05:33.802Z,17.10
2022-12-11T22:08:00.235Z,17.30
2022-12-11T22:10:28.140Z,18.17
2022-12-11T22:12:54.530Z,18.63
2022-12-11T22:15:21.032Z,20.00
2022-12-11T22:17:47.382Z,18.92
2022-12-11T22:20:13.771Z,20.80
2022-12-11T22:22:40.162Z,21.20
2022-12-11T22:25:07.891Z,21.23
2022-12-11T22:27:34.633Z,20.55
2022-12-11T22:30:01.085Z,23.48
2022-12-11T22:32:27.782Z,21.60
2022-12-11T22:34:56.293Z,24.92
2022-12-11T22:37:22.757Z,23.27
2022-12-11T22:39:49.182Z,24.55
2022-12-11T22:42:15.647Z,22.95
2022-12-11T22:44:42.035Z,20.73
2022-12-11T22:47:08.453Z,21.23
2022-12-11T22:49:35.783Z,25.37
2022-12-11T22:52:02.208Z,22.20
2022-12-11T22:54:28.604Z,23.20
2022-12-11T22:56:54.983Z,21.92
2022-12-11T22:59:21.420Z,26.73
2022-12-11T23:01:47.794Z,24.87
2022-12-11T23:04:14.159Z,30.13
2022-12-11T23:06:40.621Z,25.38
2022-12-11T23:09:07.271Z,28.33
2022-12-11T23:11:36.301Z,24.80
2022-12-11T23:14:03.913Z,27.77
2022-12-11T23:16:30.422Z,35.05
2022-12-11T23:18:57.415Z,29.55
2022-12-11T23:21:24.373Z,32.45
2022-12-11T23:23:50.901Z,30.45
2022-12-11T23:26:18.831Z,29.17
2022-12-11T23:28:45.965Z,28.35
2022-12-11T23:31:12.527Z,27.42
2022-12-11T23:33:38.997Z,30.38
2022-12-11T23:36:05.750Z,26.83
2022-12-11T23:38:32.462Z,28.40
2022-12-11T23:41:00.260Z,26.77
2022-12-11T23:43:26.691Z,29.85
2022-12-11T23:45:53.375Z,30.70
2022-12-11T23:48:19.761Z,31.75
2022-12-11T23:50:46.280Z,27.20
2022-12-11T23:53:12.842Z,29.58
2022-12-11T23:55:40.355Z,29.35
2022-12-11T23:58:06.843Z,27.30
